Time;durP1;ratioP1;P1;durP2;ratioP2;P2;SDS_P1;SDS_P2;PMS_P1;PMS_P2;Temp;Humidity;BMP_temperature;BMP_pressure;BME280_temperature;BME280_humidity;BME280_pressure;Samples;Min_cycle;Max_cycle;Signal;HPM_P1;HPM_P2
2022/05/16 00:01:26;;;;;;;9.68;8.73;;;;;;;15.51;67.81;95282.88;5118478;28;20188;-66
2022/05/16 00:03:53;;;;;;;9.50;8.70;;;;;;;15.45;67.89;95278.03;5118550;28;20191;-66
2022/05/16 00:06:20;;;;;;;9.75;8.85;;;;;;;15.42;67.98;95282.34;5118568;28;20191;-66
2022/05/16 00:08:47;;;;;;;10.10;9.20;;;;;;;15.41;68.21;95272.41;5118534;28;20198;-66
2022/05/16 00:11:15;;;;;;;10.73;9.57;;;;;;;15.42;68.20;95271.22;5118466;28;20198;-67
2022/05/16 00:13:41;;;;;;;10.30;9.07;;;;;;;15.36;67.57;95270.00;5118225;28;20207;-66
2022/05/16 00:16:08;;;;;;;10.02;9.23;;;;;;;15.28;67.74;95271.84;5117324;28;20196;-67
2022/05/16 00:18:35;;;;;;;10.10;9.30;;;;;;;15.29;67.96;95265.13;5117238;28;20183;-66
2022/05/16 00:21:02;;;;;;;10.15;9.27;;;;;;;15.29;68.13;95265.13;5117044;28;20196;-66
2022/05/16 00:23:29;;;;;;;9.85;8.93;;;;;;;15.29;68.44;95261.56;5117764;28;20580;-67
2022/05/16 00:25:55;;;;;;;9.30;8.60;;;;;;;15.26;68.08;95265.91;5117828;28;20290;-66
2022/05/16 00:28:23;;;;;;;9.77;8.85;;;;;;;15.22;68.07;95267.03;5115701;28;20210;-67
2022/05/16 00:30:50;;;;;;;9.35;8.52;;;;;;;15.16;68.08;95263.78;5118024;28;20184;-66
2022/05/16 00:33:17;;;;;;;9.52;8.63;;;;;;;15.14;67.93;95255.00;5117903;28;20214;-66
2022/05/16 00:35:44;;;;;;;9.13;8.43;;;;;;;15.14;68.29;95266.94;5117371;28;20180;-65
2022/05/16 00:38:11;;;;;;;10.40;9.45;;;;;;;15.14;68.28;95263.34;5117375;28;20663;-65
2022/05/16 00:40:38;;;;;;;10.13;9.23;;;;;;;15.13;67.98;95253.41;5116426;28;20243;-66
2022/05/16 00:43:07;;;;;;;9.35;8.50;;;;;;;15.08;67.94;95262.88;5117665;28;20180;-66
2022/05/16 00:45:36;;;;;;;9.23;8.30;;;;;;;15.02;67.55;95258.03;5116559;28;20208;-66
2022/05/16 00:48:03;;;;;;;9.88;8.93;;;;;;;14.99;68.13;95258.78;5116070;28;20192;-67
2022/05/16 00:50:32;;;;;;;9.50;8.65;;;;;;;14.98;67.86;95259.97;5117207;28;20205;-67
2022/05/16 00:52:59;;;;;;;9.27;8.48;;;;;;;14.92;67.93;95262.25;5116297;28;20204;-67
2022/05/16 00:55:30;;;;;;;9.30;8.60;;;;;;;14.87;68.35;95257.06;5115927;28;20219;-67
2022/05/16 00:58:01;;;;;;;9.75;8.82;;;;;;;14.87;68.25;95257.06;5117230;28;20197;-67
2022/05/16 01:00:31;;;;;;;9.25;8.45;;;;;;;14.84;68.19;95261.38;5116017;28;20184;-67
2022/05/16 01:05:46;;;;;;;8.60;7.90;;;;;;;14.82;68.65;95260.16;5116055;28;20279;-66
2022/05/16 01:08:16;;;;;;;8.88;8.18;;;;;;;14.81;68.27;95250.22;5116664;28;20180;-66
2022/05/16 01:10:42;;;;;;;9.27;8.48;;;;;;;14.77;68.63;95255.72;5116655;28;20196;-66
2022/05/16 01:13:10;;;;;;;9.40;8.48;;;;;;;14.74;68.55;95256.47;5116220;28;20199;-66
2022/05/16 01:15:39;;;;;;;8.68;7.90;;;;;;;14.69;68.43;95256.78;5116688;28;20196;-66
2022/05/16 01:18:09;;;;;;;9.80;8.90;;;;;;;14.64;68.19;95249.59;5116767;28;20191;-67
2022/05/16 01:20:47;;;;;;;9.88;8.98;;;;;;;14.62;68.13;95257.50;5116986;28;20187;-66
2022/05/16 01:23:17;;;;;;;9.85;8.85;;;;;;;14.62;68.34;95251.94;5116863;28;20194;-66
2022/05/16 01:25:44;;;;;;;9.65;8.95;;;;;;;14.61;68.33;95246.78;5117138;28;20184;-66
2022/05/16 01:28:11;;;;;;;9.35;8.52;;;;;;;14.59;68.20;95254.66;5116682;28;20196;-66
2022/05/16 01:30:42;;;;;;;9.73;8.93;;;;;;;14.59;68.89;95254.66;5116716;28;20180;-66
2022/05/16 01:33:08;;;;;;;9.88;9.07;;;;;;;14.57;69.03;95255.03;5116759;28;20187;-66
2022/05/16 01:35:35;;;;;;;9.48;8.52;;;;;;;14.57;68.62;95252.28;5115824;28;20203;-66
2022/05/16 01:38:22;;;;;;;10.25;9.20;;;;;;;14.50;68.49;95257.72;5115256;28;20528;-66
2022/05/16 01:40:52;;;;;;;9.57;8.77;;;;;;;14.43;68.77;95261.16;5115247;28;20276;-67
2022/05/16 01:43:20;;;;;;;9.45;8.60;;;;;;;14.44;68.89;95257.19;5115956;28;20192;-67
2022/05/16 01:45:47;;;;;;;9.32;8.43;;;;;;;14.47;68.83;95252.06;5116290;28;20188;-66
2022/05/16 01:48:15;;;;;;;9.32;8.55;;;;;;;14.47;68.67;95263.19;5116194;28;20195;-66
2022/05/16 01:50:43;;;;;;;9.68;8.77;;;;;;;14.47;69.64;95266.75;5116569;28;20188;-67
2022/05/16 01:53:10;;;;;;;9.10;8.30;;;;;;;14.49;69.50;95264.41;5115166;28;20198;-67
2022/05/16 01:55:37;;;;;;;8.77;8.07;;;;;;;14.49;69.41;95267.19;5115364;28;20650;-67
2022/05/16 01:58:06;;;;;;;9.82;8.85;;;;;;;14.46;69.11;95265.16;5115090;28;20192;-66
2022/05/16 02:00:33;;;;;;;9.30;8.50;;;;;;;14.41;68.49;95273.78;5115891;28;20202;-67
2022/05/16 02:03:00;;;;;;;10.05;9.25;;;;;;;14.35;68.18;95273.31;5115005;28;20191;-67
2022/05/16 02:05:28;;;;;;;9.27;8.48;;;;;;;14.29;68.36;95266.47;5115170;28;20203;-66
2022/05/16 02:07:55;;;;;;;9.90;8.90;;;;;;;14.28;68.11;95269.63;5115899;28;20187;-66
2022/05/16 02:10:24;;;;;;;10.00;9.10;;;;;;;14.25;68.50;95273.94;5114880;28;20195;-66
2022/05/16 02:12:51;;;;;;;9.57;8.73;;;;;;;14.25;69.03;95273.16;5114878;28;20199;-67
2022/05/16 02:15:22;;;;;;;9.60;8.80;;;;;;;14.27;68.72;95281.88;5114881;28;20280;-67
2022/05/16 02:17:49;;;;;;;9.95;9.10;;;;;;;14.31;68.89;95269.69;5115032;28;20210;-66
2022/05/16 02:20:17;;;;;;;8.85;8.05;;;;;;;14.27;68.98;95273.56;5115593;28;20188;-66
2022/05/16 02:25:28;;;;;;;9.45;8.65;;;;;;;14.23;69.17;95273.50;5114403;28;20195;-67
2022/05/16 02:27:55;;;;;;;9.60;8.60;;;;;;;14.22;68.94;95269.13;5115431;28;20184;-67
2022/05/16 02:30:23;;;;;;;9.25;8.45;;;;;;;14.16;68.57;95274.22;5114779;28;20203;-67
2022/05/16 02:32:50;;;;;;;10.02;9.02;;;;;;;14.11;68.46;95265.38;5115571;28;20190;-66
2022/05/16 02:35:18;;;;;;;10.02;9.02;;;;;;;14.04;68.20;95265.25;5114720;28;20226;-67
2022/05/16 02:37:45;;;;;;;9.75;8.80;;;;;;;13.96;68.42;95273.47;5115401;28;20180;-67
2022/05/16 02:40:12;;;;;;;9.70;8.65;;;;;;;13.90;68.43;95268.59;5114339;28;20195;-67
2022/05/16 02:42:39;;;;;;;9.80;8.77;;;;;;;13.84;68.56;95267.31;5114267;28;20194;-66
2022/05/16 02:45:07;;;;;;;9.35;8.55;;;;;;;13.82;68.82;95264.09;5115603;28;20198;-66
2022/05/16 02:47:36;;;;;;;9.15;8.25;;;;;;;13.83;69.08;95257.38;5114465;28;20199;-66
2022/05/16 02:50:04;;;;;;;8.77;8.02;;;;;;;13.85;69.20;95261.38;5114510;28;20260;-66
2022/05/16 02:52:30;;;;;;;10.18;8.20;;;;;;;13.87;68.99;95272.91;5118750;28;20203;-67
2022/05/16 02:55:00;;;;;;;9.02;8.25;;;;;;;13.84;69.29;95264.53;5119376;28;20208;-66
2022/05/16 02:57:27;;;;;;;10.13;9.18;;;;;;;13.85;69.23;95266.13;5119510;28;20652;-66
2022/05/16 02:59:54;;;;;;;10.88;9.85;;;;;;;13.80;69.20;95267.25;5118646;28;20200;-66
2022/05/16 03:02:21;;;;;;;10.05;9.15;;;;;;;13.81;69.26;95274.38;5119440;28;20184;-67
2022/05/16 03:04:50;;;;;;;9.93;9.10;;;;;;;13.81;69.92;95273.59;5119207;28;20596;-66
2022/05/16 03:07:16;;;;;;;9.55;8.75;;;;;;;13.85;69.36;95274.44;5119602;28;20188;-67
2022/05/16 03:09:43;;;;;;;11.00;8.93;;;;;;;13.88;69.32;95268.16;5119642;28;20202;-66
2022/05/16 03:12:11;;;;;;;10.73;9.70;;;;;;;13.84;69.00;95270.09;5118160;28;20195;-66
2022/05/16 03:14:38;;;;;;;10.07;9.18;;;;;;;13.81;68.94;95279.94;5119194;28;20226;-67
2022/05/16 03:17:05;;;;;;;9.82;8.70;;;;;;;13.79;69.08;95282.25;5118136;28;20192;-67
2022/05/16 03:19:34;;;;;;;10.30;8.90;;;;;;;13.77;69.24;95286.59;5119038;28;20207;-66
2022/05/16 03:22:02;;;;;;;11.32;8.70;;;;;;;13.78;69.37;95283.44;5118823;28;20191;-67
2022/05/16 03:24:29;;;;;;;9.77;8.73;;;;;;;13.77;69.31;95290.16;5119047;28;20195;-67
2022/05/16 03:26:57;;;;;;;15.07;9.63;;;;;;;13.77;69.47;95286.59;5101671;28;20195;-67
2022/05/16 03:29:23;;;;;;;12.75;9.45;;;;;;;13.77;69.34;95292.94;5119325;28;20180;-66
2022/05/16 03:31:50;;;;;;;10.73;9.63;;;;;;;13.78;69.56;95297.28;5118236;28;20203;-67
2022/05/16 03:34:17;;;;;;;10.57;8.95;;;;;;;13.82;69.33;95302.91;5118564;28;20546;-66
2022/05/16 03:36:44;;;;;;;11.48;9.40;;;;;;;13.82;69.50;95305.66;5118630;28;20571;-67
2022/05/16 03:41:57;;;;;;;10.02;9.13;;;;;;;13.81;69.42;95309.63;5117674;28;20651;-67
2022/05/16 03:44:24;;;;;;;10.60;9.20;;;;;;;13.83;69.50;95310.03;5118662;28;20188;-67
2022/05/16 03:46:51;;;;;;;10.48;9.48;;;;;;;13.83;69.75;95307.28;5118278;28;20190;-68
2022/05/16 03:49:18;;;;;;;10.95;9.85;;;;;;;13.84;69.42;95315.22;5118582;28;20202;-67
2022/05/16 03:51:45;;;;;;;11.60;9.82;;;;;;;13.87;69.60;95310.91;5117764;28;20231;-67
2022/05/16 03:54:15;;;;;;;11.02;9.93;;;;;;;13.90;69.79;95321.25;5117429;28;20303;-66
2022/05/16 03:56:42;;;;;;;12.45;10.73;;;;;;;13.93;69.68;95326.06;5118766;28;20199;-70
2022/05/16 03:59:11;;;;;;;12.40;9.95;;;;;;;13.94;69.62;95319.34;5117729;28;20227;-67
2022/05/16 04:01:39;;;;;;;11.60;9.93;;;;;;;13.94;69.86;95320.19;5117998;28;20256;-67
2022/05/16 04:04:05;;;;;;;10.00;9.10;;;;;;;13.94;69.65;95327.66;5100349;28;20192;-67
2022/05/16 04:06:34;;;;;;;11.70;9.00;;;;;;;13.94;69.53;95327.66;5118189;28;20187;-67
2022/05/16 04:09:01;;;;;;;9.93;8.93;;;;;;;13.94;69.38;95330.44;5117315;28;20282;-67
2022/05/16 04:11:29;;;;;;;10.50;9.43;;;;;;;13.95;69.75;95332.88;5117670;28;20188;-67
2022/05/16 04:13:56;;;;;;;10.10;9.25;;;;;;;13.96;69.80;95339.22;5118084;28;20184;-67
2022/05/16 04:16:23;;;;;;;9.07;8.27;;;;;;;13.95;69.44;95338.41;5117967;28;20207;-67
2022/05/16 04:18:50;;;;;;;9.65;8.05;;;;;;;13.94;69.32;95345.13;5117155;28;20206;-67
2022/05/16 04:21:16;;;;;;;9.02;8.27;;;;;;;13.96;69.44;95337.22;5117900;28;20180;-67
2022/05/16 04:23:43;;;;;;;9.27;8.32;;;;;;;13.97;69.55;95338.81;5117186;28;20188;-67
2022/05/16 04:26:10;;;;;;;8.60;7.80;;;;;;;13.99;69.73;95335.69;5116594;28;20199;-67
2022/05/16 04:28:38;;;;;;;9.13;8.25;;;;;;;14.01;69.62;95343.66;5116838;28;20203;-67
2022/05/16 04:31:05;;;;;;;9.40;8.48;;;;;;;14.02;69.42;95342.50;5117401;28;20596;-67
2022/05/16 04:33:34;;;;;;;11.02;8.68;;;;;;;14.06;69.27;95340.59;5117124;28;20196;-67
2022/05/16 04:36:01;;;;;;;9.07;8.27;;;;;;;14.06;69.13;95349.69;5116754;28;20222;-67
2022/05/16 04:38:28;;;;;;;9.45;8.55;;;;;;;14.09;69.28;95345.38;5116591;28;20207;-67
2022/05/16 04:43:41;;;;;;;10.07;8.25;;;;;;;14.08;69.07;95350.13;5117478;28;20179;-67
2022/05/16 04:46:08;;;;;;;9.70;8.88;;;;;;;14.12;69.61;95342.66;5117024;28;20560;-67
2022/05/16 04:48:35;;;;;;;9.55;8.65;;;;;;;14.16;69.51;95346.31;5116549;28;20221;-67
2022/05/16 04:51:02;;;;;;;9.43;8.57;;;;;;;14.22;69.79;95346.81;5117280;28;20215;-67
2022/05/16 04:53:29;;;;;;;9.85;8.98;;;;;;;14.24;69.68;95355.56;5115918;28;20203;-67
2022/05/16 04:55:56;;;;;;;9.85;8.95;;;;;;;14.27;70.29;95356.78;5115955;28;20545;-67
2022/05/16 04:58:24;;;;;;;10.73;9.00;;;;;;;14.32;69.94;95357.28;5116976;28;20188;-67
2022/05/16 05:00:52;;;;;;;9.82;8.82;;;;;;;14.34;70.49;95357.75;5116867;28;20184;-67
2022/05/16 05:03:19;;;;;;;9.68;8.80;;;;;;;14.35;70.50;95359.34;5116155;28;20203;-67
2022/05/16 05:05:45;;;;;;;9.10;8.40;;;;;;;14.36;70.76;95365.69;5116106;28;20191;-67
2022/05/16 05:08:12;;;;;;;10.25;8.68;;;;;;;14.36;70.99;95360.94;5115795;28;20194;-67
2022/05/16 05:16:10;;;;;;;10.55;9.50;;;;;;;14.42;71.46;95361.44;5116266;28;20199;-67
2022/05/16 05:18:38;;;;;;;10.52;9.52;;;;;;;14.47;71.44;95374.19;5116541;28;20176;-67
2022/05/16 05:21:06;;;;;;;11.80;10.52;;;;;;;14.53;70.92;95378.28;5116229;28;20195;-67
2022/05/16 05:23:34;;;;;;;12.50;10.02;;;;;;;14.62;70.72;95371.31;5115220;28;20620;-67
2022/05/16 05:26:01;;;;;;;10.82;9.73;;;;;;;14.72;70.32;95374.63;5116536;28;20179;-68
2022/05/16 05:28:27;;;;;;;10.82;9.88;;;;;;;14.79;69.82;95383.06;5116505;28;20199;-67
2022/05/16 05:30:55;;;;;;;14.40;10.73;;;;;;;14.83;69.74;95376.41;5115864;28;20201;-67
2022/05/16 05:33:23;;;;;;;11.88;10.45;;;;;;;14.90;69.26;95384.03;5116076;28;20188;-67
2022/05/16 05:35:50;;;;;;;11.50;10.40;;;;;;;14.94;69.04;95384.91;5115318;28;20223;-67
2022/05/16 05:38:16;;;;;;;11.82;10.82;;;;;;;14.96;69.27;95377.00;5116135;28;20218;-67
2022/05/16 05:40:43;;;;;;;12.85;11.45;;;;;;;14.97;69.55;95386.13;5115114;28;20611;-67
2022/05/16 05:43:10;;;;;;;12.48;11.18;;;;;;;14.99;68.95;95378.22;5115214;28;20203;-67
2022/05/16 05:45:38;;;;;;;13.13;11.88;;;;;;;15.02;68.97;95371.91;5116237;28;20180;-67
2022/05/16 05:48:05;;;;;;;12.63;11.40;;;;;;;15.12;69.29;95383.19;5115800;28;20176;-67
2022/05/16 05:50:34;;;;;;;11.85;10.85;;;;;;;15.17;68.69;95377.28;5115975;28;20184;-67
2022/05/16 05:53:01;;;;;;;14.82;13.20;;;;;;;15.21;68.75;95376.56;5115910;28;20187;-67
2022/05/16 05:55:27;;;;;;;14.85;13.50;;;;;;;15.22;68.91;95376.19;5115562;28;20230;-67
2022/05/16 05:57:55;;;;;;;14.05;12.95;;;;;;;15.28;68.53;95373.88;5114907;28;20634;-67
2022/05/16 06:00:22;;;;;;;14.95;13.45;;;;;;;15.30;68.28;95371.53;5115451;28;20184;-67
2022/05/16 06:02:49;;;;;;;14.65;13.20;;;;;;;15.30;68.55;95379.88;5114543;28;20191;-67
2022/05/16 06:05:21;;;;;;;13.52;12.32;;;;;;;15.27;69.61;95383.41;5114862;28;20202;-67
2022/05/16 06:07:49;;;;;;;15.40;13.90;;;;;;;15.24;69.35;95376.59;5115911;28;20206;-67
2022/05/16 06:10:16;;;;;;;13.93;12.70;;;;;;;15.27;69.47;95380.63;5115311;28;20612;-67
2022/05/16 06:12:43;;;;;;;14.35;12.88;;;;;;;15.38;69.22;95378.78;5115458;28;20207;-67
2022/05/16 06:15:11;;;;;;;14.75;13.40;;;;;;;15.48;68.81;95378.13;5115268;28;20218;-67
2022/05/16 06:17:38;;;;;;;17.02;12.85;;;;;;;15.53;68.15;95375.00;5114912;28;20188;-67
2022/05/16 06:20:07;;;;;;;14.15;12.68;;;;;;;15.54;68.41;95375.81;5114935;28;20207;-67
2022/05/16 06:22:35;;;;;;;14.48;12.73;;;;;;;15.59;68.20;95376.28;5115440;28;20181;-67
2022/05/16 06:27:48;;;;;;;14.80;13.43;;;;;;;15.66;67.96;95378.41;5115275;28;20203;-67
2022/05/16 06:30:16;;;;;;;14.40;13.05;;;;;;;15.72;67.74;95378.84;5115505;28;20184;-67
2022/05/16 06:32:42;;;;;;;14.75;13.27;;;;;;;15.74;67.80;95371.72;5115544;28;20176;-67
2022/05/16 06:35:10;;;;;;;14.82;12.73;;;;;;;15.75;67.92;95376.09;5114166;28;20238;-67
2022/05/16 06:37:36;;;;;;;15.80;11.63;;;;;;;15.82;67.17;95373.41;5114231;28;20203;-67
2022/05/16 06:40:06;;;;;;;12.65;11.45;;;;;;;15.86;66.48;95377.03;5115455;28;20180;-67
2022/05/16 06:42:33;;;;;;;15.05;12.30;;;;;;;15.88;66.51;95371.09;5114329;28;20234;-67
2022/05/16 06:45:00;;;;;;;16.40;12.70;;;;;;;15.95;66.51;95373.19;5114232;28;20218;-67
2022/05/16 06:47:26;;;;;;;14.95;13.38;;;;;;;16.03;66.51;95381.22;5115426;28;20192;-67
2022/05/16 06:49:53;;;;;;;15.18;13.68;;;;;;;16.10;66.14;95377.72;5114465;28;20200;-67
2022/05/16 06:52:24;;;;;;;14.73;12.38;;;;;;;16.17;66.37;95377.00;5114304;28;20192;-67
2022/05/16 06:54:50;;;;;;;15.38;12.35;;;;;;;16.22;65.92;95374.66;5115336;28;20206;-67
2022/05/16 06:57:19;;;;;;;13.07;11.60;;;;;;;16.27;65.59;95376.31;5115546;28;20199;-67
2022/05/16 06:59:45;;;;;;;13.07;11.70;;;;;;;16.31;65.63;95375.16;5115395;28;20265;-67
2022/05/16 07:02:12;;;;;;;12.25;11.05;;;;;;;16.35;65.39;95370.41;5115351;28;20199;-67
2022/05/16 07:04:39;;;;;;;11.13;9.05;;;;;;;16.40;65.27;95377.59;5114338;28;20208;-67
2022/05/16 07:07:08;;;;;;;10.60;9.52;;;;;;;16.43;64.77;95376.06;5114478;28;20200;-67
2022/05/16 07:09:36;;;;;;;10.68;9.57;;;;;;;16.46;64.69;95370.53;5115415;28;20180;-67
2022/05/16 07:12:03;;;;;;;11.68;10.32;;;;;;;16.52;64.20;95373.72;5114447;28;20244;-67
2022/05/16 07:14:31;;;;;;;9.68;8.68;;;;;;;16.53;63.96;95364.22;5114299;28;20612;-67
2022/05/16 07:16:58;;;;;;;9.73;8.52;;;;;;;16.53;63.37;95364.22;5115156;28;20207;-67
2022/05/16 07:19:28;;;;;;;10.38;9.48;;;;;;;16.56;62.77;95371.81;5114458;28;20196;-67
2022/05/16 07:21:55;;;;;;;10.10;8.63;;;;;;;16.63;62.31;95365.47;5115010;28;20198;-67
2022/05/16 07:24:22;;;;;;;12.23;9.38;;;;;;;16.74;62.33;95367.22;5115110;28;20184;-67
2022/05/16 07:29:34;;;;;;;11.55;10.52;;;;;;;16.88;61.20;95362.94;5113975;28;20196;-67
2022/05/16 07:32:02;;;;;;;11.80;10.70;;;;;;;16.93;61.03;95359.81;5114254;28;20188;-67
2022/05/16 07:34:28;;;;;;;11.07;10.15;;;;;;;17.05;60.80;95365.06;5114197;28;20195;-67
2022/05/16 07:36:55;;;;;;;11.35;10.25;;;;;;;17.08;60.44;95351.13;5116504;28;20211;-67
2022/05/16 07:39:22;;;;;;;11.45;10.07;;;;;;;17.17;60.69;95352.78;5117940;28;20192;-67
2022/05/16 07:41:52;;;;;;;12.02;10.20;;;;;;;17.27;62.16;95354.84;5117421;28;20547;-67
2022/05/16 07:44:19;;;;;;;10.57;9.45;;;;;;;17.32;60.71;95355.28;5118295;28;20626;-67
2022/05/16 07:46:47;;;;;;;9.85;8.88;;;;;;;17.44;59.95;95347.78;5118617;28;20236;-67
2022/05/16 07:49:14;;;;;;;8.73;7.93;;;;;;;17.49;59.16;95348.19;5118307;28;20187;-67
2022/05/16 07:51:41;;;;;;;9.60;8.05;;;;;;;17.51;58.73;95353.38;5118589;28;20208;-67
2022/05/16 07:54:08;;;;;;;9.43;7.93;;;;;;;17.55;58.15;95355.00;5118462;28;20188;-67
2022/05/16 07:56:35;;;;;;;7.88;7.03;;;;;;;17.61;57.78;95354.59;5117344;28;20219;-67
2022/05/16 07:59:03;;;;;;;8.27;5.82;;;;;;;17.64;56.27;95351.84;5117683;28;20218;-67
2022/05/16 08:01:30;;;;;;;6.43;5.93;;;;;;;17.83;56.22;95350.78;5117602;28;20222;-67
2022/05/16 08:03:59;;;;;;;5.95;5.20;;;;;;;17.90;54.40;95359.16;5117122;28;20199;-67
2022/05/16 08:06:27;;;;;;;6.95;6.03;;;;;;;17.95;55.11;95349.59;5117766;28;20608;-67
2022/05/16 08:11:38;;;;;;;4.85;4.45;;;;;;;18.11;52.04;95354.84;5117333;28;20227;-67
2022/05/16 08:14:05;;;;;;;5.20;4.65;;;;;;;18.23;52.52;95346.91;5118110;28;20180;-67
2022/05/16 08:16:32;;;;;;;5.00;4.45;;;;;;;18.28;52.30;95351.28;5117153;28;20272;-67
2022/05/16 08:19:00;;;;;;;8.40;4.43;;;;;;;18.31;51.47;95349.72;5118058;28;20192;-67
2022/05/16 08:21:27;;;;;;;4.50;4.13;;;;;;;18.34;51.46;95348.88;5117210;28;20567;-67
2022/05/16 08:23:53;;;;;;;4.43;3.90;;;;;;;18.44;48.01;95343.31;5117917;28;20618;-67
2022/05/16 08:26:20;;;;;;;4.15;3.70;;;;;;;18.70;50.13;95346.94;5117724;28;20191;-67
2022/05/16 08:28:47;;;;;;;5.50;4.22;;;;;;;18.75;49.28;95350.16;5117821;28;20196;-67
2022/05/16 08:31:14;;;;;;;4.05;3.75;;;;;;;18.85;47.60;95354.16;5117599;28;20207;-67
2022/05/16 08:33:41;;;;;;;3.83;3.50;;;;;;;18.94;47.58;95345.38;5117730;28;20188;-67
2022/05/16 08:41:45;;;;;;;4.72;3.20;;;;;;;19.29;46.08;95330.53;5116276;28;20299;-67
2022/05/16 08:44:18;;;;;;;4.00;3.63;;;;;;;19.50;46.02;95329.69;5116674;28;20198;-67
2022/05/16 08:46:47;;;;;;;5.63;3.92;;;;;;;19.52;44.71;95329.28;5117311;28;20664;-67
2022/05/16 08:49:18;;;;;;;4.00;3.70;;;;;;;19.52;45.29;95330.06;5116462;28;20191;-67
2022/05/16 08:51:49;;;;;;;5.05;3.38;;;;;;;19.59;45.93;95324.47;5117144;28;20191;-67
2022/05/16 08:54:27;;;;;;;5.28;4.03;;;;;;;19.79;45.08;95330.41;5117254;28;20184;-67
2022/05/16 08:56:56;;;;;;;5.40;4.93;;;;;;;19.95;44.33;95330.72;5117410;28;20233;-67
2022/05/16 08:59:26;;;;;;;4.32;3.83;;;;;;;19.95;43.53;95329.94;5116938;28;20199;-67
2022/05/16 09:01:54;;;;;;;3.33;2.90;;;;;;;20.07;42.85;95326.66;5117233;28;20199;-67
2022/05/16 09:04:26;;;;;;;3.05;2.80;;;;;;;20.15;41.35;95327.41;5116751;28;20188;-67
2022/05/16 09:07:02;;;;;;;3.25;2.63;;;;;;;20.25;40.31;95323.75;5116219;28;20195;-67
2022/05/16 09:09:37;;;;;;;3.10;2.80;;;;;;;20.27;40.63;95324.16;5116924;28;20616;-67
2022/05/16 09:12:10;;;;;;;3.05;2.70;;;;;;;20.37;39.24;95322.47;5115831;28;20268;-67
2022/05/16 09:14:50;;;;;;;3.70;2.72;;;;;;;20.42;39.27;95319.25;5116964;28;20180;-67
2022/05/16 09:17:20;;;;;;;3.85;2.65;;;;;;;20.52;40.04;95323.25;5116957;28;20200;-67
2022/05/16 09:20:05;;;;;;;3.20;2.83;;;;;;;20.68;38.13;95313.09;5115990;28;20294;-67
2022/05/16 09:22:38;;;;;;;4.93;2.70;;;;;;;20.84;36.68;95308.94;5115335;28;20218;-67
2022/05/16 09:25:09;;;;;;;2.30;2.10;;;;;;;20.97;36.41;95310.03;5116266;28;20197;-67
2022/05/16 09:30:28;;;;;;;3.92;2.67;;;;;;;21.40;37.26;95298.41;5116382;28;20169;-67
2022/05/16 09:32:59;;;;;;;3.38;3.08;;;;;;;21.54;39.92;95300.28;5116283;28;20187;-67
2022/05/16 09:35:35;;;;;;;3.55;2.70;;;;;;;21.59;36.21;95299.81;5115830;28;20207;-67
2022/05/16 09:38:04;;;;;;;3.00;2.75;;;;;;;21.68;37.06;95300.13;5115484;28;20505;-67
2022/05/16 09:40:34;;;;;;;4.18;2.58;;;;;;;21.87;36.52;95293.06;5115339;28;20234;-67
2022/05/16 09:43:06;;;;;;;3.72;2.90;;;;;;;22.04;37.26;95300.44;5116057;28;20252;-67
2022/05/16 09:45:33;;;;;;;3.83;3.20;;;;;;;22.10;38.28;95286.72;5115365;28;20192;-67
2022/05/16 09:48:00;;;;;;;4.05;2.90;;;;;;;22.13;34.72;95291.50;5114989;28;20199;-67
2022/05/16 09:50:28;;;;;;;2.85;2.65;;;;;;;22.06;36.37;95283.94;5115394;28;20192;-68
2022/05/16 09:53:13;;;;;;;3.03;2.55;;;;;;;22.17;35.02;95283.84;5116037;28;20206;-67
2022/05/16 09:55:46;;;;;;;2.92;2.58;;;;;;;22.24;32.72;95278.13;5115217;28;20298;-67
2022/05/16 09:58:15;;;;;;;3.72;2.38;;;;;;;22.25;33.36;95282.50;5115104;28;20257;-67
2022/05/16 10:00:46;;;;;;;3.22;2.33;;;;;;;22.21;33.21;95273.34;5115115;28;20196;-67
2022/05/16 10:03:26;;;;;;;3.92;2.50;;;;;;;22.18;34.61;95277.00;5114805;28;20680;-67
2022/05/16 10:05:54;;;;;;;3.75;2.78;;;;;;;22.45;35.89;95274.19;5116101;28;20195;-67
2022/05/16 10:08:28;;;;;;;4.10;3.17;;;;;;;22.59;34.93;95267.56;5115804;28;20196;-67
2022/05/16 10:10:57;;;;;;;2.92;2.45;;;;;;;22.60;34.13;95260.72;5115237;28;20211;-67
2022/05/16 10:13:24;;;;;;;2.70;2.50;;;;;;;22.59;34.13;95271.16;5116035;28;20206;-67
2022/05/16 10:15:54;;;;;;;2.53;2.30;;;;;;;22.61;33.87;95264.31;5115148;28;20268;-67
2022/05/16 10:18:22;;;;;;;3.65;2.30;;;;;;;22.67;34.27;95257.78;5114621;28;20207;-67
2022/05/16 10:20:53;;;;;;;3.75;2.60;;;;;;;22.71;35.03;95247.25;5116320;28;20188;-67
2022/05/16 10:23:23;;;;;;;3.00;2.50;;;;;;;22.77;34.77;95245.56;5115890;28;20180;-67
2022/05/16 10:25:54;;;;;;;3.10;2.70;;;;;;;23.05;34.11;95243.47;5115069;28;20203;-67
2022/05/16 10:28:26;;;;;;;4.53;2.45;;;;;;;23.14;34.32;95240.91;5115720;28;20264;-67
2022/05/16 10:33:39;;;;;;;3.42;2.60;;;;;;;23.24;33.56;95227.84;5115584;28;20176;-67
2022/05/16 10:36:08;;;;;;;4.03;2.50;;;;;;;23.26;34.22;95226.19;5114816;28;20198;-67
2022/05/16 10:38:38;;;;;;;2.58;2.38;;;;;;;23.40;34.05;95227.94;5114884;28;20195;-67
2022/05/16 10:41:11;;;;;;;3.13;2.92;;;;;;;23.45;33.78;95223.81;5114765;28;20232;-68
2022/05/16 10:43:49;;;;;;;2.45;2.25;;;;;;;23.44;33.94;95219.41;5116016;28;20264;-67
2022/05/16 10:46:18;;;;;;;3.45;2.80;;;;;;;23.47;34.00;95218.56;5114914;28;20199;-68
2022/05/16 10:48:47;;;;;;;5.30;2.70;;;;;;;23.50;33.81;95221.31;5114704;28;20203;-68
2022/05/16 10:51:15;;;;;;;2.60;2.40;;;;;;;23.57;33.22;95222.38;5114562;28;20210;-67
2022/05/16 10:53:52;;;;;;;3.92;2.70;;;;;;;23.64;33.40;95220.22;5115600;28;20192;-67
2022/05/16 10:56:34;;;;;;;2.78;2.58;;;;;;;23.73;33.88;95219.66;5114580;28;20218;-67
2022/05/16 10:59:04;;;;;;;4.35;3.17;;;;;;;23.94;33.80;95213.56;5115030;28;20195;-67
2022/05/16 11:01:34;;;;;;;4.72;2.85;;;;;;;23.99;32.45;95200.97;5115597;28;20554;-67
2022/05/16 11:04:13;;;;;;;2.70;2.50;;;;;;;23.94;34.26;95212.75;5114717;28;20200;-67
2022/05/16 11:07:02;;;;;;;3.20;3.00;;;;;;;23.98;33.70;95207.84;5114280;28;20239;-67
2022/05/16 11:09:38;;;;;;;4.13;3.75;;;;;;;24.12;32.54;95207.50;5114801;28;20207;-67
2022/05/16 11:12:12;;;;;;;3.33;3.03;;;;;;;24.18;33.03;95194.50;5116944;28;20588;-67
2022/05/16 11:14:46;;;;;;;3.30;2.85;;;;;;;24.21;32.51;95187.97;5118325;28;20359;-68
2022/05/16 11:17:20;;;;;;;2.75;2.55;;;;;;;24.21;31.77;95187.16;5119457;28;20207;-67
2022/05/16 11:19:52;;;;;;;4.10;2.72;;;;;;;24.20;32.45;95205.31;5118471;28;20195;-67
2022/05/16 11:22:24;;;;;;;3.17;2.70;;;;;;;24.30;31.81;95195.03;5119157;28;20188;-67
2022/05/16 11:24:53;;;;;;;5.03;2.85;;;;;;;24.31;32.17;95185.34;5118905;28;20199;-67
2022/05/16 11:27:30;;;;;;;3.13;2.50;;;;;;;24.34;32.49;95184.47;5119099;28;20188;-67
2022/05/16 11:30:06;;;;;;;3.83;2.90;;;;;;;24.37;31.87;95177.94;5119086;28;20233;-67
2022/05/16 11:32:50;;;;;;;3.05;2.60;;;;;;;24.40;31.25;95179.91;5117982;28;20225;-67
2022/05/16 11:35:24;;;;;;;3.17;2.88;;;;;;;24.41;30.96;95175.88;5115931;28;20210;-67
2022/05/16 11:38:06;;;;;;;4.28;2.47;;;;;;;24.49;32.35;95178.06;5118594;28;20219;-67
2022/05/16 11:40:35;;;;;;;6.45;3.13;;;;;;;24.50;30.29;95174.00;5117369;28;20568;-67
2022/05/16 11:43:09;;;;;;;3.15;2.20;;;;;;;24.53;30.06;95171.53;5117566;28;20595;-67
2022/05/16 11:45:58;;;;;;;4.22;2.90;;;;;;;24.63;30.91;95173.28;5118672;28;20181;-67
2022/05/16 11:48:27;;;;;;;3.85;2.65;;;;;;;24.77;29.74;95172.13;5118264;28;20622;-67
2022/05/16 11:51:00;;;;;;;2.42;2.22;;;;;;;24.76;30.44;95165.69;5118587;28;20184;-67
2022/05/16 11:53:44;;;;;;;2.50;2.30;;;;;;;24.76;29.73;95156.44;5118282;28;20191;-67
2022/05/16 12:02:17;;;;;;;2.13;1.80;;;;;;;24.81;28.62;95153.88;5117496;28;20503;-67
2022/05/16 12:04:46;;;;;;;3.45;2.10;;;;;;;24.85;29.48;95151.75;5118354;28;20184;-67
2022/05/16 12:07:24;;;;;;;2.60;2.40;;;;;;;24.92;29.24;95136.66;5118407;28;20187;-67
2022/05/16 12:09:54;;;;;;;5.15;2.30;;;;;;;24.96;30.66;95137.34;5117943;28;20194;-67
2022/05/16 12:12:40;;;;;;;2.85;2.58;;;;;;;25.17;29.92;95133.19;5117408;28;20278;-67
2022/05/16 12:15:30;;;;;;;2.45;2.25;;;;;;;25.20;27.62;95126.63;5118212;28;20232;-67
2022/05/16 12:18:00;;;;;;;2.20;2.00;;;;;;;25.19;27.38;95120.19;5113921;28;20292;-67
2022/05/16 12:21:04;;;;;;;2.45;1.80;;;;;;;25.25;27.76;95122.47;5117760;28;20494;-67